메인 페이지
METAR-TAF:

METAR-TAF

공항 :

Lake Tahoe Airport

South Lake Tahoe, 캘리포니아, 미국

위도: 38-53-38N, 경도: 119-59-43W, 고도: 1909m

현재 날씨관측

예보는 32분 전, 06:53시(UTC)에 발표되었습니다.
4kt
온도 0°C
습도 74%
기압 1023 hPa
시정: 16.1km
맑음

METAR: KTVL 210653Z AUTO 18004KT 10SM CLR 00/M04 A3020 RMK AO2 SLP199 T00001044

시각: 00:25 (07:25 UTC)

예보

예보는 2 시간 3분 전, 05:22시(UTC)에 발표되었습니다.
예보 대상 시간: 21일 06시부터 22일 06시까지 (UTC)
여러 방향의 바람 3kt
시정: 10km
맑음

TAF: KTVL 210522Z 2106/2206 VRB03KT P6SM SKC

4,000개 이상의 공항 관측 자료 및 예보 (METAR 및 TAF 보고).

지도상에서 검색 가능한 기상관측소가 노란 점과 빨간 점으로 표시되어 있습니다.

기상관측소 명을 보려면 표시 위로 마우스를 이동하세요.

날씨 관측과 예보를 보려면 클릭하세요.

지도 변경 : 확대하려면 엑스 표시가 있는 녹색 버튼, 축소하려면 빼기 표시가 있는 녹색 버튼, 다음 페이지의 지도를 보려면 녹색 화살표를 클릭하세요.


METAR-TAF: